Terminal Aerodrome Forecast
Issued by NWS Spokane, WA

Home | Current Version | Previous Version | Text Only | Print | Product List | Glossary On
Versions: 1 2 3 4 5 6 7 8 9 10 11 12 13 14 15 16 17 18 19 20 21 22
000
FTUS46 KOTX 230722 AAA
TAFGEG
TAF AMD
KGEG 230722Z 2307/2406 21008KT 1/2SM FG VCSH OVC003
      TEMPO 2307/2311 1/4SM FG VV002
     FM231400 20004KT 1SM BR OVC005
     FM231700 15004KT 5SM BR BKN008 OVC015
     FM240200 25004KT 3SM BR BKN006=

USA.gov is the U.S. government's official web portal to all federal, state and local government web resources and services.